Data for 10/16/2017

Time Sea-Level Adjusted Pressure Absolute Pressure Temperature Relative Humidity Dew Point   
(mb) (inHg) (mb) (inHg) (C) (F) (%) (C) (F)
00:05 1025 30.27 854 25.22 6.2 43.2 46 -4.5 23.9
00:10 1025 30.27 854 25.22 6.5 43.7 45 -4.5 23.9
00:15 1025 30.27 854 25.22 6.8 44.3 44 -4.6 23.7
00:20 1025 30.27 854 25.22 6.6 43.9 46 -4.1 24.6
00:25 1025 30.27 854 25.22 6.6 43.8 45 -4.4 24.1
00:30 1025 30.27 854 25.22 6.4 43.5 46 -4.5 23.9
00:35 1025 30.27 854 25.22 6.5 43.8 45 -4.6 23.8
00:40 1025 30.27 854 25.22 6.6 43.9 45 -4.4 24.1
00:45 1025 30.27 854 25.22 6.6 43.9 43 -4.9 23.1
00:50 1025 30.27 854 25.22 7 44.7 45 -4.2 24.4
00:55 1025 30.27 854 25.22 6.8 44.3 46 -4 24.9
01:00 1025 30.27 854 25.22 5.9 42.7 49 -3.8 25.1
01:05 1025 30.27 854 25.22 5.4 41.6 55 -3.1 26.5
01:10 1025 30.27 854 25.22 4.4 39.9 56 -3.6 25.4
01:15 1025 30.27 854 25.22 4 39.2 58 -3.5 25.7
01:20 1025 30.27 854 25.22 4.1 39.4 55 -4.1 24.6
01:25 1025 30.27 854 25.22 4.5 40.1 52 -4.4 24.1
01:30 1025 30.27 854 25.22 5.2 41.3 52 -3.8 25.1
01:35 1025 30.27 854 25.22 4.7 40.5 53 -3.9 24.9
01:40 1025 30.27 854 25.22 4.5 40.1 55 -3.8 25.2
01:45 1025 30.27 854 25.22 4.4 40 53 -4.3 24.3
01:50 1025 30.27 854 25.22 5.2 41.4 50 -4.5 23.9
01:55 1025 30.27 854 25.22 5.7 42.2 48 -4.4 24
02:00 1025 30.27 854 25.22 5.7 42.3 48 -4.3 24.2
02:05 1025 30.27 854 25.22 5.7 42.3 48 -4.3 24.2
02:10 1025 30.27 854 25.22 5.4 41.8 50 -4.1 24.6
02:15 1025 30.27 854 25.22 5.7 42.2 48 -4.4 24.1
02:20 1025 30.27 854 25.22 5.7 42.2 50 -4 24.8
02:25 1025 30.27 854 25.22 5.3 41.6 51 -4 24.8
02:30 1025 30.27 854 25.22 5 41 53 -3.8 25.1
02:35 1025 30.27 854 25.22 4.6 40.3 55 -3.8 25.2
02:40 1025 30.27 854 25.22 4.2 39.6 55 -4.1 24.7
02:45 1025 30.27 854 25.22 4.4 39.9 54 -4.1 24.5
02:50 1025 30.27 854 25.22 4.5 40.1 53 -4.2 24.5
02:55 1025 30.27 854 25.22 4.5 40 54 -4.1 24.6
03:00 1025 30.27 854 25.22 4.3 39.8 54 -4.1 24.7
03:05 1025 30.27 854 25.22 4.2 39.6 55 -4.1 24.7
03:10 1025 30.27 854 25.22 4 39.1 56 -4 24.7
03:15 1025 30.27 854 25.22 3.8 38.8 57 -4 24.7
03:20 1025 30.27 854 25.22 3.6 38.5 56 -4.3 24.3
03:25 1025 30.27 854 25.22 3.9 38.9 55 -4.4 24.1
03:30 1025 30.27 854 25.22 3.9 39 56 -4 24.8
03:35 1025 30.27 854 25.22 3.5 38.3 57 -4.3 24.3
03:40 1025 30.27 854 25.22 3.5 38.2 57 -4.1 24.5
03:45 1025 30.27 854 25.22 3.6 38.4 56 -4.4 24.1
03:50 1025 30.27 854 25.22 3.7 38.7 55 -4.5 23.8
03:55 1025 30.27 854 25.22 4.1 39.4 54 -4.4 24.2
04:00 1025 30.27 854 25.22 4.1 39.4 56 -3.8 25.1
04:05 1025 30.27 854 25.22 2.8 37 63 -3.7 25.4
04:10 1025 30.27 854 25.22 2.7 36.8 59 -4.6 23.7
04:15 1025 30.27 854 25.22 3.3 37.9 57 -4.4 24
04:20 1025 30.27 854 25.22 3.5 38.3 55 -4.8 23.4
04:25 1025 30.27 854 25.22 3.8 38.8 53 -4.8 23.3
04:30 1025 30.27 854 25.22 4 39.2 54 -4.5 23.8
04:35 1025 30.27 854 25.22 4 39.2 53 -4.6 23.6
04:40 1025 30.27 854 25.22 4.1 39.3 53 -4.6 23.6
04:45 1025 30.27 854 25.22 4.2 39.5 53 -4.7 23.6
04:50 1025 30.27 854 25.22 4.2 39.5 51 -5.1 22.9
04:55 1025 30.27 854 25.22 4.4 40 53 -4.3 24.2
05:00 1025 30.27 854 25.22 3.7 38.7 57 -3.9 25
05:05 1025 30.27 854 25.22 3.4 38.1 57 -4.3 24.3
05:10 1025 30.27 854 25.22 3.5 38.2 58 -4.1 24.7
05:15 1025 30.27 854 25.22 2.9 37.2 60 -4 24.7
05:20 1025 30.27 854 25.22 3 37.4 57 -4.7 23.5
05:25 1025 30.27 854 25.22 3.2 37.7 60 -3.9 25
05:30 1025 30.27 854 25.22 3.2 37.8 58 -4.2 24.5
05:35 1025 30.27 854 25.22 3.3 37.9 59 -4 24.8
05:40 1025 30.27 854 25.22 3.3 38 57 -4.5 23.9
05:45 1025 30.27 854 25.22 3.1 37.5 57 -4.5 23.8
05:50 1025 30.27 854 25.22 3.1 37.5 58 -4.3 24.2
05:55 1025 30.27 854 25.22 2.9 37.3 60 -4.2 24.4
06:00 1025 30.27 854 25.22 2.8 37.1 59 -4.5 24
06:05 1025 30.27 854 25.22 3.1 37.5 58 -4.3 24.2
06:10 1025 30.27 854 25.22 3 37.4 58 -4.5 24
06:15 1025 30.27 854 25.22 2.7 36.9 61 -4.1 24.7
06:20 1025 30.27 854 25.22 3 37.4 55 -5.2 22.6
06:25 1025 30.27 854 25.22 3.5 38.3 55 -4.7 23.5
06:30 1025 30.27 854 25.22 3.5 38.3 54 -4.9 23.2
06:35 1025 30.27 854 25.22 3.5 38.3 56 -4.5 23.9
06:40 1025 30.27 854 25.22 2.9 37.2 59 -4.4 24
06:45 1025 30.27 854 25.22 2.4 36.3 59 -4.8 23.3
06:50 1025 30.27 854 25.22 2.8 37 57 -4.9 23.2
06:55 1025 30.27 854 25.22 3 37.4 53 -5.6 21.9
07:00 1025 30.27 854 25.22 3.7 38.7 52 -5.3 22.5
07:05 1025 30.27 854 25.22 3.9 38.9 52 -5 23
07:10 1025 30.27 854 25.22 3.9 39 52 -5 22.9
07:15 1025 30.27 854 25.22 4.1 39.3 52 -5 23
07:20 1025 30.27 855 25.25 4.4 40 48 -5.6 21.9
07:25 1025 30.27 855 25.25 5.2 41.4 45 -5.7 21.8
07:30 1025 30.27 855 25.25 5.8 42.4 45 -5.3 22.4
07:35 1026 30.3 855 25.25 5.9 42.6 46 -4.8 23.4
07:40 1026 30.3 855 25.25 5.8 42.4 43 -5.7 21.7
07:45 1026 30.3 855 25.25 6.2 43.2 45 -5 23.1
07:50 1026 30.3 855 25.25 6.2 43.1 44 -5.1 22.8
07:55 1026 30.3 855 25.25 6.1 43 48 -4 24.8
08:00 1026 30.3 855 25.25 5.7 42.3 47 -4.9 23.3
08:05 1026 30.3 855 25.25 5.7 42.2 44 -5.6 22
08:10 1026 30.3 855 25.25 6 42.9 44 -5.4 22.2
08:15 1026 30.3 855 25.25 6.6 43.8 44 -4.7 23.5
08:20 1026 30.3 855 25.25 7.3 45.1 43 -4.5 23.9
08:25 1026 30.3 855 25.25 7.5 45.5 44 -4.1 24.7
08:30 1026 30.3 855 25.25 7.6 45.7 44 -3.9 24.9
08:35 1026 30.3 855 25.25 7.5 45.4 43 -4.4 24.1
08:40 1026 30.3 855 25.25 7.8 46 40 -5.1 22.8
08:45 1026 30.3 855 25.25 8.2 46.7 38 -5.3 22.5
08:50 1026 30.3 855 25.25 8.6 47.6 38 -4.8 23.3
08:55 1026 30.3 855 25.25 9.4 48.8 35 -5.2 22.7
09:00 1026 30.3 855 25.25 10.2 50.4 33 -5.3 22.5
09:05 1026 30.3 855 25.25 11 51.8 32 -4.8 23.3
09:10 1026 30.3 855 25.25 11.1 51.9 31 -5.2 22.6
09:15 1026 30.3 855 25.25 11.1 51.9 28 -6.6 20.2
09:20 1026 30.3 855 25.25 11.5 52.7 28 -6.4 20.4
09:25 1026 30.3 855 25.25 11.6 52.8 28 -6.2 20.8
09:30 1026 30.3 855 25.25 11.4 52.5 28 -6.5 20.3
09:35 1026 30.3 855 25.25 11.8 53.2 29 -5.8 21.6
09:40 1026 30.3 855 25.25 12 53.5 29 -5.4 22.3
09:45 1026 30.3 855 25.25 11.7 53 29 -5.8 21.5
09:50 1026 30.3 855 25.25 11.7 53.1 26 -7.1 19.3
09:55 1026 30.3 855 25.25 11.9 53.4 26 -6.9 19.5
10:00 1026 30.3 855 25.25 12.4 54.4 25 -6.8 19.8
10:05 1026 30.3 855 25.25 13.1 55.6 23 -7.3 18.8
10:10 1026 30.3 855 25.25 14.1 57.3 20 -8.3 17.1
10:15 1026 30.3 855 25.25 14.9 58.8 18 -9.5 14.9
10:20 1026 30.3 855 25.25 15 59.1 19 -8.6 16.6
10:25 1026 30.3 855 25.25 14.2 57.5 21 -7.5 18.4
10:30 1026 30.3 855 25.25 13.4 56.2 22 -8 17.6
10:35 1026 30.3 855 25.25 13.5 56.3 20 -9 15.8
10:40 1026 30.3 855 25.25 14.5 58 17 -10 14
10:45 1026 30.3 855 25.25 15.6 60 16 -9.8 14.3
10:50 1026 30.3 855 25.25 15.9 60.7 18 -8.6 16.5
10:55 1026 30.3 855 25.25 16 60.8 17 -8.8 16.2
11:00 1026 30.3 855 25.25 16.1 61 19 -7.7 18.1
11:05 1026 30.3 855 25.25 15.3 59.5 17 -9.5 14.9
11:10 1026 30.3 855 25.25 14.7 58.4 20 -7.9 17.7
11:15 1026 30.3 855 25.25 15.3 59.5 19 -8.4 16.9
11:20 1026 30.3 855 25.25 15.5 60 19 -7.7 18.1
11:25 1026 30.3 855 25.25 15.8 60.5 19 -7.7 18.1
11:30 1026 30.3 855 25.25 14.7 58.5 19 -8.5 16.7
11:35 1026 30.3 855 25.25 15.8 60.4 17 -9.1 15.6
11:40 1026 30.3 855 25.25 16.2 61.2 17 -8.7 16.4
11:45 1025 30.27 855 25.25 15.6 60.1 18 -8.5 16.6
11:50 1025 30.27 855 25.25 15.2 59.4 18 -8.9 15.9
11:55 1025 30.27 855 25.25 16.5 61.7 16 -9.6 14.8
12:00 1025 30.27 854 25.22 16.6 61.9 15 -9.7 14.5
12:05 1025 30.27 854 25.22 16.2 61.1 17 -8.9 16
12:10 1025 30.27 854 25.22 16.9 62.5 17 -8.5 16.7
12:15 1025 30.27 854 25.22 17.5 63.5 17 -8 17.6
12:20 1025 30.27 854 25.22 17.8 64 16 -8.6 16.5
12:25 1025 30.27 854 25.22 17.8 64.1 15 -9.1 15.6
12:30 1025 30.27 854 25.22 18.3 64.9 14 -9.3 15.2
12:35 1025 30.27 854 25.22 18.8 65.8 14 -9.1 15.6
12:40 1025 30.27 854 25.22 19.1 66.3 14 -8.8 16.2
12:45 1025 30.27 854 25.22 19.2 66.6 15 -8.4 16.9
12:50 1025 30.27 854 25.22 19 66.3 13 -9.6 14.6
12:55 1025 30.27 854 25.22 18.3 65 14 -9.3 15.2
13:00 1025 30.27 854 25.22 18.9 66 14 -8.8 16.1
13:05 1025 30.27 854 25.22 19.3 66.8 14 -9.1 15.6
13:10 1024 30.24 854 25.22 18.9 66.1 13 -10.1 13.9
13:15 1024 30.24 854 25.22 18.2 64.8 15 -9 15.9
13:20 1024 30.24 853 25.19 19 66.2 14 -9.1 15.6
13:25 1024 30.24 853 25.19 19.1 66.4 14 -8.9 16
13:30 1024 30.24 853 25.19 18.7 65.7 15 -8.4 17
13:35 1024 30.24 853 25.19 18.8 65.8 14 -9.1 15.6
13:40 1024 30.24 853 25.19 19.2 66.6 13 -9.6 14.6
13:45 1024 30.24 853 25.19 18.9 66 14 -9 15.9
13:50 1024 30.24 853 25.19 19.6 67.3 14 -9 15.9
13:55 1024 30.24 853 25.19 19.9 67.8 13 -9.3 15.3
14:00 1024 30.24 853 25.19 18.8 65.9 14 -9.4 15.1
14:05 1024 30.24 853 25.19 18.8 65.8 14 -9.3 15.3
14:10 1024 30.24 853 25.19 19.1 66.3 14 -9.2 15.4
14:15 1024 30.24 853 25.19 19.5 67.1 13 -9.6 14.8
14:20 1024 30.24 853 25.19 19.4 66.8 14 -9 15.7
14:25 1024 30.24 853 25.19 19.5 67.1 13 -9.3 15.3
14:30 1024 30.24 853 25.19 19.6 67.3 13 -9.2 15.5
14:35 1024 30.24 853 25.19 19.3 66.8 13 -9.2 15.4
14:40 1024 30.24 853 25.19 20.1 68.2 13 -9 15.8
14:45 1024 30.24 853 25.19 20.3 68.6 14 -8.4 16.9
14:50 1024 30.24 853 25.19 20.1 68.1 13 -8.6 16.4
14:55 1023 30.21 853 25.19 19.9 67.7 14 -8.7 16.3
15:00 1023 30.21 853 25.19 19.8 67.7 14 -8.1 17.5
15:05 1023 30.21 852 25.16 20 68 14 -8.5 16.7
15:10 1023 30.21 852 25.16 19.3 66.7 14 -8.5 16.7
15:15 1023 30.21 852 25.16 19 66.2 14 -8.7 16.3
15:20 1023 30.21 852 25.16 19 66.1 14 -9.1 15.7
15:25 1023 30.21 852 25.16 19.3 66.8 14 -8.7 16.4
15:30 1023 30.21 852 25.16 19.3 66.7 14 -8.7 16.3
15:35 1023 30.21 852 25.16 19.5 67 15 -8.1 17.3
15:40 1023 30.21 852 25.16 19.9 67.7 14 -8.6 16.6
15:45 1023 30.21 852 25.16 19.8 67.7 14 -8.8 16.2
15:50 1023 30.21 852 25.16 20.2 68.3 13 -8.7 16.4
15:55 1023 30.21 852 25.16 20.1 68.2 14 -8.2 17.3
16:00 1023 30.21 852 25.16 19.3 66.7 14 -8.4 16.9
16:05 1023 30.21 852 25.16 19 66.2 14 -8.8 16.2
16:10 1023 30.21 852 25.16 19.5 67.1 14 -8.7 16.4
16:15 1023 30.21 852 25.16 19.8 67.6 14 -8.7 16.4
16:20 1023 30.21 852 25.16 19.5 67.2 14 -8.7 16.4
16:25 1023 30.21 852 25.16 18.6 65.4 14 -9.1 15.7
16:30 1023 30.21 852 25.16 18.3 65 14 -9.3 15.2
16:35 1023 30.21 852 25.16 18.6 65.5 14 -9 15.8
16:40 1023 30.21 852 25.16 18.5 65.3 15 -8.9 16
16:45 1023 30.21 852 25.16 18.2 64.8 15 -9.1 15.6
16:50 1023 30.21 852 25.16 17.9 64.2 15 -9 15.7
16:55 1023 30.21 852 25.16 17.9 64.2 15 -9.3 15.3
17:00 1023 30.21 852 25.16 17.8 64 15 -9.3 15.3
17:05 1023 30.21 852 25.16 17.6 63.7 15 -9 15.8
17:10 1023 30.21 852 25.16 17.6 63.6 15 -9 15.8
17:15 1023 30.21 852 25.16 17.7 63.8 15 -8.8 16.1
17:20 1023 30.21 852 25.16 17.9 64.2 15 -8.7 16.3
17:25 1023 30.21 852 25.16 17.9 64.2 16 -8.6 16.6
17:30 1023 30.21 852 25.16 17.6 63.6 20 -5.3 22.5
17:35 1023 30.21 852 25.16 15.9 60.6 22 -5.5 22.1
17:40 1023 30.21 852 25.16 15.6 60.1 25 -4.1 24.6
17:45 1023 30.21 852 25.16 14.2 57.5 28 -3.9 25
17:50 1023 30.21 852 25.16 13.2 55.8 29 -4.2 24.5
17:55 1023 30.21 852 25.16 12.6 54.7 30 -4.3 24.3
18:00 1023 30.21 852 25.16 12.2 53.9 31 -4.5 23.9
18:05 1023 30.21 852 25.16 12 53.5 31 -4.5 24
18:10 1023 30.21 852 25.16 11.7 53 32 -4.6 23.6
18:15 1023 30.21 852 25.16 11.5 52.7 32 -4.7 23.6
18:20 1023 30.21 852 25.16 11.4 52.4 32 -4.7 23.6
18:25 1023 30.21 852 25.16 11.3 52.3 32 -4.8 23.3
18:30 1023 30.21 852 25.16 11 51.9 33 -4.7 23.5
18:35 1023 30.21 852 25.16 10.8 51.5 33 -4.9 23.2
18:40 1023 30.21 852 25.16 10.5 51 33 -4.8 23.3
18:45 1023 30.21 852 25.16 10.3 50.5 34 -5 23.1
18:50 1023 30.21 852 25.16 10 50 34 -4.9 23.2
18:55 1023 30.21 852 25.16 9.8 49.6 35 -4.8 23.4
19:00 1023 30.21 852 25.16 9.6 49.3 36 -4.8 23.3
19:05 1023 30.21 852 25.16 9.5 49.1 36 -4.9 23.1
19:10 1023 30.21 852 25.16 9.5 49.2 35 -5.1 22.9
19:15 1023 30.21 852 25.16 9.6 49.2 35 -5 22.9
19:20 1023 30.21 852 25.16 9.5 49 36 -4.9 23.2
19:25 1023 30.21 852 25.16 9.4 48.8 36 -5.1 22.9
19:30 1023 30.21 852 25.16 9.2 48.6 36 -5.1 22.8
19:35 1023 30.21 852 25.16 9.1 48.3 36 -5 22.9
19:40 1023 30.21 852 25.16 8.9 48 36 -5.4 22.4
19:45 1023 30.21 852 25.16 9.3 48.8 35 -5.5 22.1
19:50 1023 30.21 852 25.16 9.4 48.9 35 -5.2 22.6
19:55 1023 30.21 852 25.16 9.4 49 34 -5.4 22.2
20:00 1023 30.21 852 25.16 9.2 48.6 35 -5.3 22.4
20:05 1023 30.21 852 25.16 9.3 48.7 34 -5.7 21.7
20:10 1023 30.21 852 25.16 9 48.3 35 -5.6 22
20:15 1023 30.21 852 25.16 8.7 47.6 37 -5.3 22.4
20:20 1023 30.21 852 25.16 8.4 47.1 37 -5.4 22.2
20:25 1023 30.21 852 25.16 8.4 47 37 -5.6 21.9
20:30 1023 30.21 852 25.16 8.5 47.3 36 -5.7 21.7
20:35 1023 30.21 852 25.16 8.7 47.6 35 -5.8 21.6
20:40 1023 30.21 852 25.16 8.5 47.3 37 -5.2 22.7
20:45 1023 30.21 852 25.16 7.9 46.2 39 -5.2 22.6
20:50 1023 30.21 852 25.16 7.8 46.1 36 -6.5 20.4
20:55 1023 30.21 852 25.16 9 48.2 32 -6.7 19.9
21:00 1023 30.21 852 25.16 9.6 49.3 31 -6.7 19.9
21:05 1023 30.21 852 25.16 9.7 49.5 30 -6.8 19.7
21:10 1023 30.21 852 25.16 9.8 49.6 30 -7.1 19.2
21:15 1023 30.21 852 25.16 10.2 50.4 28 -7.4 18.7
21:20 1023 30.21 853 25.19 10.6 51 27 -7.4 18.7
21:25 1023 30.21 853 25.19 10.7 51.3 28 -6.9 19.7
21:30 1023 30.21 853 25.19 10.4 50.6 29 -7.1 19.2
21:35 1023 30.21 853 25.19 10.5 50.8 28 -7.2 19
21:40 1023 30.21 853 25.19 10.5 50.8 28 -7.3 18.9
21:45 1023 30.21 853 25.19 10.8 51.5 28 -7.1 19.2
21:50 1023 30.21 853 25.19 11.1 52 27 -6.9 19.5
21:55 1023 30.21 853 25.19 11 51.7 28 -6.9 19.6
22:00 1023 30.21 853 25.19 10.6 51.1 30 -6.2 20.8
22:05 1023 30.21 853 25.19 9.9 49.9 32 -6 21.2
22:10 1023 30.21 853 25.19 8 46.5 39 -5 23
22:15 1023 30.21 853 25.19 7.3 45.1 36 -6.9 19.7
22:20 1023 30.21 853 25.19 8.2 46.8 32 -7.3 18.8
22:25 1023 30.21 853 25.19 9 48.2 31 -7.3 18.9
22:30 1023 30.21 853 25.19 9.3 48.7 30 -7.4 18.6
22:35 1023 30.21 852 25.16 9.2 48.6 33 -6.4 20.5
22:40 1023 30.21 852 25.16 8.1 46.6 36 -6.1 21
22:45 1023 30.21 852 25.16 7.4 45.3 38 -6 21.1
22:50 1023 30.21 852 25.16 7 44.6 39 -5.8 21.5
22:55 1023 30.21 852 25.16 6.9 44.4 39 -6.3 20.7
23:00 1023 30.21 852 25.16 7.2 45 40 -5.5 22
23:05 1023 30.21 852 25.16 6.6 43.9 42 -5.5 22
23:10 1023 30.21 852 25.16 6.4 43.5 38 -7 19.4
23:15 1023 30.21 852 25.16 7.7 45.9 36 -6.4 20.5
23:20 1023 30.21 852 25.16 7.7 45.9 35 -6.7 19.9
23:25 1023 30.21 852 25.16 8.1 46.6 33 -7.3 18.8
23:30 1023 30.21 852 25.16 8.4 47.1 33 -7 19.4
23:35 1023 30.21 852 25.16 8.3 46.9 33 -7 19.3
23:40 1023 30.21 852 25.16 8 46.4 36 -6.1 21.1
23:45 1023 30.21 852 25.16 7.4 45.3 36 -6.7 19.9
23:50 1023 30.21 852 25.16 7.3 45.1 39 -5.7 21.7
23:55 1023 30.21 852 25.16 6.9 44.4 41 -5.3 22.4
24:00 1023 30.21 852 25.16 6.4 43.5 42 -5.6 22